Chrisanthi — SX7108 — position and weather

sailwx.info

Track history (hours):
 
Tides and Currents Weather Stations Pressure Air Temp Water Temp Dewpoint Dewpoint Depression Visibility Wind Speed Wind Dir Waves Ship Positions

Chrisanthi

Last reported at 2017-Jun-22 05:11 UTC. Time now 2017-Jun-24 08:53 UTC.
Position N 37°10' E 025°47'.

Length 56 m; draft 3.9 m.

Type: Ship (hazmat cat A). MMSI: 237009100.

Date/timePositionNaut miles runAvg speedWind from/ knotsBaromVisibWave heightAir tempDewpointWater temp
2017-Jun-22 05:11N 37°10' E 025°47'210.1
2017-Jun-22 05:00N 37°10' E 025°45'510.3
2017-Jun-22 04:30N 37°11' E 025°39'710.0
2017-Jun-22 03:45N 37°12' E 025°29'310.5
2017-Jun-22 03:30N 37°10' E 025°27'510.4
2017-Jun-22 03:00N 37°07' E 025°22'0 0.8
2017-Jun-22 02:31N 37°06' E 025°22'0 0.0
2017-Jun-22 02:01N 37°06' E 025°22'0 0.0
2017-Jun-22 01:30N 37°06' E 025°22'0 0.0
2017-Jun-22 01:01N 37°06' E 025°22'0 0.0
2017-Jun-22 00:30N 37°06' E 025°22'0 0.0
2017-Jun-22 00:00N 37°06' E 025°22'0 0.0
2017-Jun-21 23:30N 37°06' E 025°22'0 0.0
2017-Jun-21 23:00N 37°06' E 025°22'2 4.3
2017-Jun-21 22:31N 37°08' E 025°20'5 9.8
2017-Jun-21 22:01N 37°11' E 025°16'510.1
2017-Jun-21 21:31N 37°13' E 025°10'5 9.9
2017-Jun-21 21:01N 37°15' E 025°04'5 9.7
2017-Jun-21 20:30N 37°17' E 024°59'5 9.8
2017-Jun-21 20:00N 37°19' E 024°53'5 9.4
2017-Jun-21 19:31N 37°21' E 024°48'45 9.8
2017-Jun-21 14:57N 37°37' E 023°55'510.4
2017-Jun-21 14:30N 37°38' E 023°49'10 9.8
2017-Jun-21 13:30N 37°44' E 023°40'5 9.7
2017-Jun-21 13:01N 37°48' E 023°36'510.2
2017-Jun-21 12:30N 37°49' E 023°30'510.0
2017-Jun-21 12:00N 37°51' E 023°24'510.3
2017-Jun-21 11:30N 37°52' E 023°17'510.4
2017-Jun-21 11:00N 37°54' E 023°11'5 1.3
2017-Jun-21 07:17N 37°55' E 023°05'0 0.0
2017-Jun-21 07:00N 37°55' E 023°05'0 0.0
2017-Jun-21 04:29N 37°55' E 023°05'0 0.0
2017-Jun-21 03:57N 37°55' E 023°05'0 0.0
2017-Jun-21 03:30N 37°55' E 023°05'0 0.0
2017-Jun-21 02:55N 37°55' E 023°05'0 0.0
2017-Jun-21 02:30N 37°55' E 023°05'0 0.0
2017-Jun-21 01:52N 37°55' E 023°05'0 0.0
2017-Jun-21 01:30N 37°55' E 023°05'1 0.2
2017-Jun-20 22:46N 37°55' E 023°06'0 0.0
2017-Jun-20 10:34N 37°55' E 023°06'0 0.0
2017-Jun-20 10:17N 37°55' E 023°06'0 0.0
2017-Jun-20 09:45N 37°55' E 023°06'0 0.0
2017-Jun-20 09:18N 37°55' E 023°06'0 0.0
2017-Jun-20 08:57N 37°55' E 023°06'11 3.2
2017-Jun-20 05:28N 37°52' E 023°19'510.4
2017-Jun-20 05:00N 37°51' E 023°25'510.1
2017-Jun-20 04:30N 37°50' E 023°32'510.1
2017-Jun-20 04:00N 37°51' E 023°38'5 9.7
2017-Jun-20 03:30N 37°47' E 023°41'55 9.8
2017-Jun-19 21:53N 37°24' E 024°44'410.4
2017-Jun-19 21:30N 37°22' E 024°49'510.1
2017-Jun-19 21:00N 37°22' E 024°55'510.3
2017-Jun-19 20:30N 37°24' E 025°01'510.4
2017-Jun-19 20:00N 37°27' E 025°05'4 9.0
2017-Jun-19 19:30N 37°29' E 025°11'510.2
2017-Jun-19 19:00N 37°28' E 025°17'2 3.6
2017-Jun-19 18:30N 37°28' E 025°19'0 0.0
2017-Jun-19 18:00N 37°28' E 025°19'0 0.0
2017-Jun-19 17:30N 37°28' E 025°19'0 0.0
2017-Jun-19 17:00N 37°28' E 025°19'0 0.0
2017-Jun-19 16:30N 37°28' E 025°19'0 0.0
2017-Jun-19 16:00N 37°28' E 025°19'0 0.3
2017-Jun-19 15:31N 37°28' E 025°19'0 0.8
2017-Jun-19 15:00N 37°28' E 025°19'0 0.0
2017-Jun-19 14:00N 37°28' E 025°19'0 0.0
2017-Jun-19 13:30N 37°28' E 025°19'0 0.0
2017-Jun-19 13:00N 37°28' E 025°19'3 6.9
2017-Jun-19 12:30N 37°25' E 025°17'5 9.4
2017-Jun-19 12:00N 37°20' E 025°16'5 9.5
2017-Jun-19 11:30N 37°16' E 025°14'5 9.7
2017-Jun-19 11:00N 37°11' E 025°11'5 9.8
2017-Jun-19 10:29N 37°07' E 025°08'2 0.1
2017-Jun-18 17:01N 37°05' E 025°08'0 9.7
2017-Jun-18 16:58N 37°05' E 025°08'5 9.1
2017-Jun-18 16:27N 37°09' E 025°11'410.0
2017-Jun-18 16:00N 37°10' E 025°17'5 9.8
2017-Jun-18 15:30N 37°07' E 025°21'0 0.7
2017-Jun-18 15:00N 37°07' E 025°22'0 0.2
2017-Jun-18 14:00N 37°07' E 025°22'0 1.0
2017-Jun-18 13:30N 37°06' E 025°22'3 6.8
2017-Jun-18 13:00N 37°04' E 025°19'5 9.6
2017-Jun-18 12:30N 36°60' E 025°21'  
2017-Jun-14 21:29N 37°11' E 025°48'510.1
2017-Jun-14 21:00N 37°12' E 025°42'810.5
2017-Jun-14 20:12N 37°14' E 025°32'210.2
2017-Jun-14 20:01N 37°14' E 025°30'5 9.9
2017-Jun-14 19:31N 37°15' E 025°24'5 9.6
2017-Jun-14 19:00N 37°17' E 025°18'5 9.4
2017-Jun-14 18:30N 37°18' E 025°12'7 9.4
2017-Jun-14 17:47N 37°19' E 025°04'3 9.7
2017-Jun-14 17:30N 37°20' E 025°00'5 9.8
2017-Jun-14 17:00N 37°21' E 024°54'5 9.6
2017-Jun-14 16:31N 37°23' E 024°49'4310.1
2017-Jun-14 12:14N 37°36' E 023°57'210.2
2017-Jun-14 12:01N 37°37' E 023°54'510.3
2017-Jun-14 11:31N 37°38' E 023°48'5 9.9
2017-Jun-14 11:01N 37°40' E 023°42'5 9.9
2017-Jun-14 10:30N 37°45' E 023°39'5 9.9
2017-Jun-14 10:01N 37°49' E 023°36'510.4
2017-Jun-14 09:30N 37°50' E 023°29'510.0
2017-Jun-14 09:00N 37°51' E 023°23'510.2
2017-Jun-14 08:30N 37°52' E 023°17'510.6
2017-Jun-14 08:00N 37°54' E 023°10'2 0.1
2017-Jun-13 15:33N 37°54' E 023°08'010.5
2017-Jun-13 15:30N 37°54' E 023°09'810.3
2017-Jun-13 14:42N 37°52' E 023°19'710.3
2017-Jun-13 14:00N 37°51' E 023°28'510.4
2017-Jun-13 13:30N 37°50' E 023°35'5 9.4
2017-Jun-13 13:00N 37°49' E 023°40'510.5
2017-Jun-13 12:30N 37°44' E 023°43'50 9.8
2017-Jun-13 07:25N 37°31' E 024°44'4 9.7
2017-Jun-13 07:00N 37°31' E 024°49'6 9.7
2017-Jun-13 06:26N 37°31' E 024°56'4 9.3
2017-Jun-13 06:00N 37°27' E 024°57'1 2.4
2017-Jun-13 05:30N 37°26' E 024°56'0 0.0
2017-Jun-13 04:58N 37°26' E 024°56'0 0.0
2017-Jun-13 04:28N 37°26' E 024°56'0 0.0
2017-Jun-13 03:58N 37°26' E 024°56'0 0.0
2017-Jun-13 03:30N 37°26' E 024°56'0 0.0
2017-Jun-13 03:00N 37°26' E 024°56'0 0.0
2017-Jun-13 02:30N 37°26' E 024°56'0 0.0
2017-Jun-13 01:45N 37°26' E 024°56'0 0.0
2017-Jun-13 01:25N 37°26' E 024°56'0 0.0
2017-Jun-13 00:58N 37°26' E 024°56'0 0.0
2017-Jun-13 00:28N 37°26' E 024°56'0 0.0
2017-Jun-12 23:48N 37°26' E 024°56'0 0.0
2017-Jun-12 23:27N 37°26' E 024°56'0 0.0
2017-Jun-12 23:00N 37°26' E 024°56'0 0.0
2017-Jun-12 22:30N 37°26' E 024°56'0 0.0
2017-Jun-12 21:58N 37°26' E 024°56'0 0.0
2017-Jun-12 21:30N 37°26' E 024°56'0 0.0
2017-Jun-12 21:00N 37°26' E 024°56'0 0.0
2017-Jun-12 20:30N 37°26' E 024°56'1 1.0
2017-Jun-12 20:00N 37°26' E 024°57'510.2
2017-Jun-12 19:29N 37°26' E 025°04'510.9
2017-Jun-12 19:00N 37°27' E 025°10'611.1
2017-Jun-12 18:30N 37°28' E 025°17'2 4.1
2017-Jun-12 18:00N 37°28' E 025°19'0 0.0
2017-Jun-12 17:30N 37°28' E 025°19'0 0.0
2017-Jun-12 17:00N 37°28' E 025°19'1 1.0
2017-Jun-12 16:30N 37°28' E 025°19'0 0.0
2017-Jun-12 16:00N 37°28' E 025°19'0 0.0
2017-Jun-12 15:30N 37°28' E 025°19'0 0.0
2017-Jun-12 15:00N 37°28' E 025°19'0 0.0
2017-Jun-12 14:22N 37°28' E 025°19'0 0.0
2017-Jun-12 13:30N 37°28' E 025°19'0 0.0
2017-Jun-12 13:00N 37°28' E 025°19'0 0.0
2017-Jun-12 12:30N 37°28' E 025°19'0 0.0
2017-Jun-12 12:00N 37°28' E 025°19'0 0.0
2017-Jun-12 11:30N 37°28' E 025°19'0 0.0
2017-Jun-12 11:00N 37°28' E 025°19'0 0.0
2017-Jun-12 10:30N 37°28' E 025°19'0 0.0
2017-Jun-12 10:00N 37°28' E 025°19'0 0.0
2017-Jun-12 09:30N 37°28' E 025°19'0 0.0
2017-Jun-12 09:00N 37°28' E 025°19'0 0.0
2017-Jun-12 08:30N 37°28' E 025°19'0 0.0
2017-Jun-12 08:00N 37°28' E 025°19'0 0.0
2017-Jun-12 07:30N 37°28' E 025°19'0 0.8
2017-Jun-12 07:00N 37°28' E 025°19'0 0.3
2017-Jun-12 06:30N 37°28' E 025°19'0 0.0
2017-Jun-12 06:00N 37°28' E 025°19'1 1.0
2017-Jun-12 05:30N 37°28' E 025°19'  
Track history (hours):
 
Tides and Currents Weather Stations Pressure Air Temp Water Temp Dewpoint Dewpoint Depression Visibility Wind Speed Wind Dir Waves Ship Positions

Chrisanthi

Last reported at 2017-Jun-22 05:11 UTC. Time now 2017-Jun-24 08:53 UTC.
Position N 37°10' E 025°47'.

Length 56 m; draft 3.9 m.

Type: Ship (hazmat cat A). MMSI: 237009100.

Date/timePositionNaut miles runAvg speedWind from/ knotsBaromVisibWave heightAir tempDewpointWater temp
2017-Jun-22 05:11N 37°10' E 025°47'210.1
2017-Jun-22 05:00N 37°10' E 025°45'510.3
2017-Jun-22 04:30N 37°11' E 025°39'710.0
2017-Jun-22 03:45N 37°12' E 025°29'310.5
2017-Jun-22 03:30N 37°10' E 025°27'510.4
2017-Jun-22 03:00N 37°07' E 025°22'0 0.8
2017-Jun-22 02:31N 37°06' E 025°22'0 0.0
2017-Jun-22 02:01N 37°06' E 025°22'0 0.0
2017-Jun-22 01:30N 37°06' E 025°22'0 0.0
2017-Jun-22 01:01N 37°06' E 025°22'0 0.0
2017-Jun-22 00:30N 37°06' E 025°22'0 0.0
2017-Jun-22 00:00N 37°06' E 025°22'0 0.0
2017-Jun-21 23:30N 37°06' E 025°22'0 0.0
2017-Jun-21 23:00N 37°06' E 025°22'2 4.3
2017-Jun-21 22:31N 37°08' E 025°20'5 9.8
2017-Jun-21 22:01N 37°11' E 025°16'510.1
2017-Jun-21 21:31N 37°13' E 025°10'5 9.9
2017-Jun-21 21:01N 37°15' E 025°04'5 9.7
2017-Jun-21 20:30N 37°17' E 024°59'5 9.8
2017-Jun-21 20:00N 37°19' E 024°53'5 9.4
2017-Jun-21 19:31N 37°21' E 024°48'45 9.8
2017-Jun-21 14:57N 37°37' E 023°55'510.4
2017-Jun-21 14:30N 37°38' E 023°49'10 9.8
2017-Jun-21 13:30N 37°44' E 023°40'5 9.7
2017-Jun-21 13:01N 37°48' E 023°36'510.2
2017-Jun-21 12:30N 37°49' E 023°30'510.0
2017-Jun-21 12:00N 37°51' E 023°24'510.3
2017-Jun-21 11:30N 37°52' E 023°17'510.4
2017-Jun-21 11:00N 37°54' E 023°11'5 1.3
2017-Jun-21 07:17N 37°55' E 023°05'0 0.0
2017-Jun-21 07:00N 37°55' E 023°05'0 0.0
2017-Jun-21 04:29N 37°55' E 023°05'0 0.0
2017-Jun-21 03:57N 37°55' E 023°05'0 0.0
2017-Jun-21 03:30N 37°55' E 023°05'0 0.0
2017-Jun-21 02:55N 37°55' E 023°05'0 0.0
2017-Jun-21 02:30N 37°55' E 023°05'0 0.0
2017-Jun-21 01:52N 37°55' E 023°05'0 0.0
2017-Jun-21 01:30N 37°55' E 023°05'1 0.2
2017-Jun-20 22:46N 37°55' E 023°06'0 0.0
2017-Jun-20 10:34N 37°55' E 023°06'0 0.0
2017-Jun-20 10:17N 37°55' E 023°06'0 0.0
2017-Jun-20 09:45N 37°55' E 023°06'0 0.0
2017-Jun-20 09:18N 37°55' E 023°06'0 0.0
2017-Jun-20 08:57N 37°55' E 023°06'11 3.2
2017-Jun-20 05:28N 37°52' E 023°19'510.4
2017-Jun-20 05:00N 37°51' E 023°25'510.1
2017-Jun-20 04:30N 37°50' E 023°32'510.1
2017-Jun-20 04:00N 37°51' E 023°38'5 9.7
2017-Jun-20 03:30N 37°47' E 023°41'55 9.8
2017-Jun-19 21:53N 37°24' E 024°44'410.4
2017-Jun-19 21:30N 37°22' E 024°49'510.1
2017-Jun-19 21:00N 37°22' E 024°55'510.3
2017-Jun-19 20:30N 37°24' E 025°01'510.4
2017-Jun-19 20:00N 37°27' E 025°05'4 9.0
2017-Jun-19 19:30N 37°29' E 025°11'510.2
2017-Jun-19 19:00N 37°28' E 025°17'2 3.6
2017-Jun-19 18:30N 37°28' E 025°19'0 0.0
2017-Jun-19 18:00N 37°28' E 025°19'0 0.0
2017-Jun-19 17:30N 37°28' E 025°19'0 0.0
2017-Jun-19 17:00N 37°28' E 025°19'0 0.0
2017-Jun-19 16:30N 37°28' E 025°19'0 0.0
2017-Jun-19 16:00N 37°28' E 025°19'0 0.3
2017-Jun-19 15:31N 37°28' E 025°19'0 0.8
2017-Jun-19 15:00N 37°28' E 025°19'0 0.0
2017-Jun-19 14:00N 37°28' E 025°19'0 0.0
2017-Jun-19 13:30N 37°28' E 025°19'0 0.0
2017-Jun-19 13:00N 37°28' E 025°19'3 6.9
2017-Jun-19 12:30N 37°25' E 025°17'5 9.4
2017-Jun-19 12:00N 37°20' E 025°16'5 9.5
2017-Jun-19 11:30N 37°16' E 025°14'5 9.7
2017-Jun-19 11:00N 37°11' E 025°11'5 9.8
2017-Jun-19 10:29N 37°07' E 025°08'2 0.1
2017-Jun-18 17:01N 37°05' E 025°08'0 9.7
2017-Jun-18 16:58N 37°05' E 025°08'5 9.1
2017-Jun-18 16:27N 37°09' E 025°11'410.0
2017-Jun-18 16:00N 37°10' E 025°17'5 9.8
2017-Jun-18 15:30N 37°07' E 025°21'0 0.7
2017-Jun-18 15:00N 37°07' E 025°22'0 0.2
2017-Jun-18 14:00N 37°07' E 025°22'0 1.0
2017-Jun-18 13:30N 37°06' E 025°22'3 6.8
2017-Jun-18 13:00N 37°04' E 025°19'5 9.6
2017-Jun-18 12:30N 36°60' E 025°21'  
2017-Jun-14 21:29N 37°11' E 025°48'510.1
2017-Jun-14 21:00N 37°12' E 025°42'810.5
2017-Jun-14 20:12N 37°14' E 025°32'210.2
2017-Jun-14 20:01N 37°14' E 025°30'5 9.9
2017-Jun-14 19:31N 37°15' E 025°24'5 9.6
2017-Jun-14 19:00N 37°17' E 025°18'5 9.4
2017-Jun-14 18:30N 37°18' E 025°12'7 9.4
2017-Jun-14 17:47N 37°19' E 025°04'3 9.7
2017-Jun-14 17:30N 37°20' E 025°00'5 9.8
2017-Jun-14 17:00N 37°21' E 024°54'5 9.6
2017-Jun-14 16:31N 37°23' E 024°49'4310.1
2017-Jun-14 12:14N 37°36' E 023°57'210.2
2017-Jun-14 12:01N 37°37' E 023°54'510.3
2017-Jun-14 11:31N 37°38' E 023°48'5 9.9
2017-Jun-14 11:01N 37°40' E 023°42'5 9.9
2017-Jun-14 10:30N 37°45' E 023°39'5 9.9
2017-Jun-14 10:01N 37°49' E 023°36'510.4
2017-Jun-14 09:30N 37°50' E 023°29'510.0
2017-Jun-14 09:00N 37°51' E 023°23'510.2
2017-Jun-14 08:30N 37°52' E 023°17'510.6
2017-Jun-14 08:00N 37°54' E 023°10'2 0.1
2017-Jun-13 15:33N 37°54' E 023°08'010.5
2017-Jun-13 15:30N 37°54' E 023°09'810.3
2017-Jun-13 14:42N 37°52' E 023°19'710.3
2017-Jun-13 14:00N 37°51' E 023°28'510.4
2017-Jun-13 13:30N 37°50' E 023°35'5 9.4
2017-Jun-13 13:00N 37°49' E 023°40'510.5
2017-Jun-13 12:30N 37°44' E 023°43'50 9.8
2017-Jun-13 07:25N 37°31' E 024°44'4 9.7
2017-Jun-13 07:00N 37°31' E 024°49'6 9.7
2017-Jun-13 06:26N 37°31' E 024°56'4 9.3
2017-Jun-13 06:00N 37°27' E 024°57'1 2.4
2017-Jun-13 05:30N 37°26' E 024°56'0 0.0
2017-Jun-13 04:58N 37°26' E 024°56'0 0.0
2017-Jun-13 04:28N 37°26' E 024°56'0 0.0
2017-Jun-13 03:58N 37°26' E 024°56'0 0.0
2017-Jun-13 03:30N 37°26' E 024°56'0 0.0
2017-Jun-13 03:00N 37°26' E 024°56'0 0.0
2017-Jun-13 02:30N 37°26' E 024°56'0 0.0
2017-Jun-13 01:45N 37°26' E 024°56'0 0.0
2017-Jun-13 01:25N 37°26' E 024°56'0 0.0
2017-Jun-13 00:58N 37°26' E 024°56'0 0.0
2017-Jun-13 00:28N 37°26' E 024°56'0 0.0
2017-Jun-12 23:48N 37°26' E 024°56'0 0.0
2017-Jun-12 23:27N 37°26' E 024°56'0 0.0
2017-Jun-12 23:00N 37°26' E 024°56'0 0.0
2017-Jun-12 22:30N 37°26' E 024°56'0 0.0
2017-Jun-12 21:58N 37°26' E 024°56'0 0.0
2017-Jun-12 21:30N 37°26' E 024°56'0 0.0
2017-Jun-12 21:00N 37°26' E 024°56'0 0.0
2017-Jun-12 20:30N 37°26' E 024°56'1 1.0
2017-Jun-12 20:00N 37°26' E 024°57'510.2
2017-Jun-12 19:29N 37°26' E 025°04'510.9
2017-Jun-12 19:00N 37°27' E 025°10'611.1
2017-Jun-12 18:30N 37°28' E 025°17'2 4.1
2017-Jun-12 18:00N 37°28' E 025°19'0 0.0
2017-Jun-12 17:30N 37°28' E 025°19'0 0.0
2017-Jun-12 17:00N 37°28' E 025°19'1 1.0
2017-Jun-12 16:30N 37°28' E 025°19'0 0.0
2017-Jun-12 16:00N 37°28' E 025°19'0 0.0
2017-Jun-12 15:30N 37°28' E 025°19'0 0.0
2017-Jun-12 15:00N 37°28' E 025°19'0 0.0
2017-Jun-12 14:22N 37°28' E 025°19'0 0.0
2017-Jun-12 13:30N 37°28' E 025°19'0 0.0
2017-Jun-12 13:00N 37°28' E 025°19'0 0.0
2017-Jun-12 12:30N 37°28' E 025°19'0 0.0
2017-Jun-12 12:00N 37°28' E 025°19'0 0.0
2017-Jun-12 11:30N 37°28' E 025°19'0 0.0
2017-Jun-12 11:00N 37°28' E 025°19'0 0.0
2017-Jun-12 10:30N 37°28' E 025°19'0 0.0
2017-Jun-12 10:00N 37°28' E 025°19'0 0.0
2017-Jun-12 09:30N 37°28' E 025°19'0 0.0
2017-Jun-12 09:00N 37°28' E 025°19'0 0.0
2017-Jun-12 08:30N 37°28' E 025°19'0 0.0
2017-Jun-12 08:00N 37°28' E 025°19'0 0.0
2017-Jun-12 07:30N 37°28' E 025°19'0 0.8
2017-Jun-12 07:00N 37°28' E 025°19'0 0.3
2017-Jun-12 06:30N 37°28' E 025°19'0 0.0
2017-Jun-12 06:00N 37°28' E 025°19'1 1.0
2017-Jun-12 05:30N 37°28' E 025°19'  

Dump ship's entire track history